createdAt,value
2018-07-25T00:01:23.018Z,3.30
2018-07-25T00:03:53.058Z,2.92
2018-07-25T00:06:23.051Z,3.10
2018-07-25T00:08:53.081Z,3.20
2018-07-25T00:11:23.006Z,3.03
2018-07-25T00:13:53.153Z,3.08
2018-07-25T00:16:23.027Z,3.62
2018-07-25T00:18:53.177Z,2.87
2018-07-25T00:21:23.023Z,2.72
2018-07-25T00:23:53.002Z,2.97
2018-07-25T00:26:23.201Z,2.60
2018-07-25T00:28:53.146Z,2.98
2018-07-25T00:31:23.166Z,2.70
2018-07-25T00:33:53.105Z,2.65
2018-07-25T00:36:23.150Z,2.62
2018-07-25T00:38:53.131Z,2.45
2018-07-25T00:41:23.021Z,2.77
2018-07-25T00:43:52.993Z,2.40
2018-07-25T00:46:23.201Z,2.55
2018-07-25T00:48:53.103Z,2.60
2018-07-25T00:51:23.082Z,2.80
2018-07-25T00:53:53.184Z,2.52
2018-07-25T00:56:23.094Z,2.50
2018-07-25T00:58:53.230Z,2.70
2018-07-25T01:01:23.213Z,2.55
2018-07-25T01:03:53.145Z,2.30
2018-07-25T01:06:23.197Z,2.77
2018-07-25T01:08:53.206Z,2.40
2018-07-25T01:11:23.246Z,2.67
2018-07-25T01:13:53.198Z,2.60
2018-07-25T01:16:23.157Z,2.12
2018-07-25T01:18:53.200Z,2.33
2018-07-25T01:21:23.197Z,2.35
2018-07-25T01:23:53.211Z,2.42
2018-07-25T01:26:23.178Z,2.42
2018-07-25T01:28:53.309Z,2.70
2018-07-25T01:31:22.977Z,2.40
2018-07-25T01:33:52.955Z,2.20
2018-07-25T01:36:23.184Z,2.75
2018-07-25T01:38:53.177Z,2.37
2018-07-25T01:41:23.254Z,2.40
2018-07-25T01:43:53.266Z,2.60
2018-07-25T01:46:26.480Z,2.65
2018-07-25T01:48:55.833Z,2.50
2018-07-25T01:51:25.276Z,2.50
2018-07-25T01:53:54.572Z,2.30
2018-07-25T01:56:23.951Z,2.40
2018-07-25T01:58:53.349Z,2.20
2018-07-25T02:01:23.275Z,2.40
2018-07-25T02:03:53.269Z,3.30
2018-07-25T02:06:25.053Z,2.70
2018-07-25T02:08:55.884Z,2.23
2018-07-25T02:11:25.226Z,2.33
2018-07-25T02:13:54.570Z,2.83
2018-07-25T02:16:23.958Z,2.60
2018-07-25T02:18:53.339Z,2.50
2018-07-25T02:21:23.269Z,2.80
2018-07-25T02:23:53.341Z,2.77
2018-07-25T02:26:23.282Z,2.80
2018-07-25T02:28:53.329Z,2.95
2018-07-25T02:31:23.486Z,2.75
2018-07-25T02:33:58.637Z,2.85
2018-07-25T02:36:28.593Z,3.20
2018-07-25T02:38:58.006Z,2.95
2018-07-25T02:41:27.373Z,2.62
2018-07-25T02:43:56.782Z,3.10
2018-07-25T02:46:26.168Z,2.70
2018-07-25T02:48:55.526Z,2.67
2018-07-25T02:51:24.878Z,2.87
2018-07-25T02:53:54.194Z,3.30
2018-07-25T02:56:23.569Z,2.57
2018-07-25T02:58:53.419Z,2.80
2018-07-25T03:01:23.434Z,2.77
2018-07-25T03:03:53.390Z,3.60
2018-07-25T03:06:23.475Z,2.90
2018-07-25T03:08:53.561Z,3.45
2018-07-25T03:11:23.396Z,2.65
2018-07-25T03:13:53.397Z,2.83
2018-07-25T03:16:23.480Z,3.00
2018-07-25T03:18:53.442Z,3.10
2018-07-25T03:21:23.459Z,2.90
2018-07-25T03:23:53.578Z,3.02
2018-07-25T03:26:23.447Z,3.02
2018-07-25T03:28:53.429Z,2.80
2018-07-25T03:31:23.468Z,2.95
2018-07-25T03:33:53.477Z,3.35
2018-07-25T03:36:23.470Z,2.80
2018-07-25T03:38:53.526Z,2.80
2018-07-25T03:41:23.449Z,2.98
2018-07-25T03:43:53.507Z,3.30
2018-07-25T03:46:23.473Z,2.73
2018-07-25T03:48:53.449Z,3.00
2018-07-25T03:51:23.189Z,3.00
2018-07-25T03:53:53.290Z,2.70
2018-07-25T03:56:23.538Z,2.92
2018-07-25T03:58:53.601Z,2.77
2018-07-25T04:01:23.537Z,2.72
2018-07-25T04:03:53.569Z,2.90
2018-07-25T04:06:23.641Z,2.87
2018-07-25T04:08:53.531Z,3.70
2018-07-25T04:11:23.571Z,3.15
2018-07-25T04:13:53.572Z,2.90
2018-07-25T04:16:23.560Z,2.87
2018-07-25T04:18:53.540Z,3.00
2018-07-25T04:21:23.531Z,2.87
2018-07-25T04:23:53.567Z,2.70
2018-07-25T04:26:23.663Z,2.70
2018-07-25T04:28:53.703Z,2.70
2018-07-25T04:31:23.592Z,3.10
2018-07-25T04:33:53.533Z,2.90
2018-07-25T04:36:23.581Z,2.90
2018-07-25T04:38:53.601Z,2.80
2018-07-25T04:41:23.682Z,2.90
2018-07-25T04:43:53.538Z,3.23
2018-07-25T04:46:23.812Z,2.95
2018-07-25T04:48:53.539Z,2.80
2018-07-25T04:51:23.586Z,2.90
2018-07-25T04:53:53.647Z,2.62
2018-07-25T04:56:23.699Z,2.87
2018-07-25T04:58:53.636Z,2.90
2018-07-25T05:01:23.727Z,3.00
2018-07-25T05:03:53.629Z,2.87
2018-07-25T05:06:23.670Z,3.15
2018-07-25T05:08:53.789Z,2.95
2018-07-25T05:11:23.677Z,2.77
2018-07-25T05:13:53.634Z,2.83
2018-07-25T05:16:23.426Z,3.08
2018-07-25T05:18:53.503Z,3.03
2018-07-25T05:21:23.657Z,3.05
2018-07-25T05:23:53.683Z,2.85
2018-07-25T05:26:23.745Z,3.30
2018-07-25T05:28:53.729Z,2.77
2018-07-25T05:31:23.803Z,3.10
2018-07-25T05:33:53.785Z,2.90
2018-07-25T05:36:23.729Z,3.42
2018-07-25T05:38:53.400Z,3.15
2018-07-25T05:41:23.596Z,2.80
2018-07-25T05:43:53.835Z,3.05
2018-07-25T05:46:23.798Z,3.30
2018-07-25T05:48:53.775Z,3.45
2018-07-25T05:51:23.749Z,3.05
2018-07-25T05:53:53.780Z,3.58
2018-07-25T05:56:23.848Z,3.05
2018-07-25T05:58:53.767Z,3.27
2018-07-25T06:01:23.881Z,3.62
2018-07-25T06:03:53.866Z,3.65
2018-07-25T06:06:23.928Z,3.70
2018-07-25T06:08:53.750Z,3.37
2018-07-25T06:11:23.741Z,3.50
2018-07-25T06:13:53.767Z,3.65
2018-07-25T06:16:23.847Z,3.72
2018-07-25T06:18:53.898Z,3.20
2018-07-25T06:21:23.832Z,3.30
2018-07-25T06:23:53.860Z,3.30
2018-07-25T06:26:23.832Z,3.52
2018-07-25T06:28:53.885Z,3.52
2018-07-25T06:31:23.975Z,3.70
2018-07-25T06:33:53.899Z,3.50
2018-07-25T06:36:23.837Z,3.70
2018-07-25T06:38:53.858Z,3.87
2018-07-25T06:41:23.887Z,3.22
2018-07-25T06:43:53.866Z,3.05
2018-07-25T06:46:23.893Z,3.20
2018-07-25T06:48:53.951Z,3.00
2018-07-25T06:51:23.959Z,3.23
2018-07-25T06:53:53.861Z,2.60
2018-07-25T06:56:23.903Z,3.15
2018-07-25T06:58:53.907Z,3.02
2018-07-25T07:01:23.946Z,3.17
2018-07-25T07:03:54.047Z,2.92
2018-07-25T07:06:24.235Z,3.10
2018-07-25T07:08:53.758Z,2.98
2018-07-25T07:11:23.909Z,2.97
2018-07-25T07:13:53.982Z,2.70
2018-07-25T07:16:24.000Z,3.05
2018-07-25T07:18:53.924Z,2.75
2018-07-25T07:21:24.019Z,2.72
2018-07-25T07:23:54.023Z,3.05
2018-07-25T07:26:23.965Z,3.00
2018-07-25T07:28:54.025Z,2.77
2018-07-25T07:31:24.016Z,2.47
2018-07-25T07:33:53.882Z,2.67
2018-07-25T07:36:24.043Z,2.92
2018-07-25T07:38:54.050Z,2.50
2018-07-25T07:41:23.637Z,3.02
2018-07-25T07:43:53.885Z,2.83
2018-07-25T07:46:24.006Z,2.62
2018-07-25T07:48:54.019Z,2.60
2018-07-25T07:51:24.001Z,2.50
2018-07-25T07:53:54.013Z,2.60
2018-07-25T07:56:24.175Z,2.65
2018-07-25T07:58:54.038Z,2.30
2018-07-25T08:01:24.090Z,2.90
2018-07-25T08:03:54.157Z,2.50
2018-07-25T08:06:24.091Z,2.40
2018-07-25T08:08:54.051Z,2.30
2018-07-25T08:11:24.166Z,2.40
2018-07-25T08:13:54.156Z,2.62
2018-07-25T08:16:24.205Z,2.22
2018-07-25T08:18:54.119Z,2.35
2018-07-25T08:21:24.098Z,2.35
2018-07-25T08:23:54.118Z,2.10
2018-07-25T08:26:24.173Z,2.60
2018-07-25T08:28:54.038Z,2.40
2018-07-25T08:31:24.239Z,2.50
2018-07-25T08:33:54.141Z,2.30
2018-07-25T08:36:24.126Z,2.20
2018-07-25T08:38:54.147Z,2.20
2018-07-25T08:41:24.122Z,2.20
2018-07-25T08:43:54.158Z,2.40
2018-07-25T08:46:24.218Z,1.98
2018-07-25T08:48:54.082Z,2.40
2018-07-25T08:51:24.102Z,2.35
2018-07-25T08:53:54.070Z,2.43
2018-07-25T08:56:24.133Z,2.40
2018-07-25T08:58:54.083Z,2.17
2018-07-25T09:01:24.225Z,1.90
2018-07-25T09:03:57.039Z,2.30
2018-07-25T09:06:26.463Z,1.90
2018-07-25T09:08:55.709Z,2.00
2018-07-25T09:11:33.183Z,2.00
2018-07-25T09:14:02.479Z,2.12
2018-07-25T09:16:32.057Z,1.97
2018-07-25T09:19:02.010Z,2.17
2018-07-25T09:21:31.389Z,2.27
2018-07-25T09:24:00.710Z,2.00
2018-07-25T09:26:30.082Z,2.40
2018-07-25T09:28:59.505Z,2.10
2018-07-25T09:31:28.849Z,2.52
2018-07-25T09:33:58.197Z,2.20
2018-07-25T09:36:27.489Z,2.20
2018-07-25T09:38:56.892Z,2.37
2018-07-25T09:41:26.310Z,2.10
2018-07-25T09:43:55.631Z,1.93
2018-07-25T09:46:24.983Z,2.13
2018-07-25T09:48:54.275Z,2.27
2018-07-25T09:51:24.178Z,2.30
2018-07-25T09:53:54.196Z,2.40
2018-07-25T09:56:24.242Z,2.27
2018-07-25T09:58:54.268Z,2.20
2018-07-25T10:01:24.330Z,2.40
2018-07-25T10:03:54.359Z,2.50
2018-07-25T10:06:24.398Z,2.27
2018-07-25T10:08:54.314Z,2.47
2018-07-25T10:11:24.577Z,2.30
2018-07-25T10:13:55.636Z,2.37
2018-07-25T10:16:24.998Z,2.50
2018-07-25T10:18:54.353Z,2.20
2018-07-25T10:21:24.331Z,2.40
2018-07-25T10:23:54.433Z,2.37
2018-07-25T10:26:24.034Z,2.47
2018-07-25T10:28:54.058Z,2.60
2018-07-25T10:31:24.360Z,2.60
2018-07-25T10:33:54.433Z,2.30
2018-07-25T10:36:24.367Z,2.58
2018-07-25T10:38:54.445Z,2.47
2018-07-25T10:41:24.316Z,2.70
2018-07-25T10:43:54.387Z,2.70
2018-07-25T10:46:24.402Z,2.43
2018-07-25T10:48:54.380Z,2.40
2018-07-25T10:51:24.465Z,2.30
2018-07-25T10:53:54.460Z,2.42
2018-07-25T10:56:24.389Z,2.62
2018-07-25T10:58:54.362Z,2.60
2018-07-25T11:01:24.352Z,2.55
2018-07-25T11:03:54.426Z,2.60
2018-07-25T11:06:24.387Z,2.43
2018-07-25T11:08:54.437Z,2.22
2018-07-25T11:11:28.134Z,2.60
2018-07-25T11:13:58.637Z,2.50
2018-07-25T11:16:28.073Z,2.30
2018-07-25T11:18:57.306Z,2.27
2018-07-25T11:21:26.695Z,2.80
2018-07-25T11:23:56.234Z,2.90
2018-07-25T11:26:25.605Z,2.80
2018-07-25T11:28:54.986Z,2.40
2018-07-25T11:31:24.449Z,2.67
2018-07-25T11:33:54.823Z,2.80
2018-07-25T11:36:24.502Z,2.85
2018-07-25T11:38:54.559Z,2.95
2018-07-25T11:41:24.564Z,2.67
2018-07-25T11:43:54.484Z,2.87
2018-07-25T11:46:24.625Z,3.05
2018-07-25T11:48:55.029Z,2.97
2018-07-25T11:51:24.577Z,2.80
2018-07-25T11:53:54.504Z,2.85
2018-07-25T11:56:24.845Z,3.00
2018-07-25T11:58:54.676Z,2.92
2018-07-25T12:01:24.502Z,3.20
2018-07-25T12:03:54.691Z,2.97
2018-07-25T12:06:25.348Z,2.92
2018-07-25T12:08:54.884Z,3.07
2018-07-25T12:11:24.531Z,2.90
2018-07-25T12:13:54.548Z,3.12
2018-07-25T12:16:24.607Z,3.10
2018-07-25T12:18:54.632Z,3.45
2018-07-25T12:21:24.589Z,3.20
2018-07-25T12:23:54.622Z,2.80
2018-07-25T12:26:24.665Z,3.08
2018-07-25T12:28:54.593Z,3.35
2018-07-25T12:31:24.594Z,2.90
2018-07-25T12:33:54.495Z,3.20
2018-07-25T12:36:24.737Z,3.30
2018-07-25T12:38:54.618Z,3.40
2018-07-25T12:41:24.597Z,3.13
2018-07-25T12:43:54.603Z,3.15
2018-07-25T12:46:24.603Z,2.90
2018-07-25T12:48:54.624Z,3.35
2018-07-25T12:51:24.617Z,3.17
2018-07-25T12:53:54.718Z,3.25
2018-07-25T12:56:24.672Z,3.20
2018-07-25T12:58:54.662Z,3.52
2018-07-25T13:01:24.717Z,2.97
2018-07-25T13:03:54.679Z,2.65
2018-07-25T13:06:24.645Z,2.70
2018-07-25T13:08:54.642Z,2.50
2018-07-25T13:11:24.698Z,3.67
2018-07-25T13:13:54.714Z,3.15
2018-07-25T13:16:24.737Z,3.17
2018-07-25T13:18:54.763Z,3.40
2018-07-25T13:21:24.726Z,3.65
2018-07-25T13:23:54.653Z,3.22
2018-07-25T13:26:24.669Z,3.40
2018-07-25T13:28:54.811Z,3.80
2018-07-25T13:31:24.958Z,3.22
2018-07-25T13:33:54.734Z,3.50
2018-07-25T13:36:24.820Z,3.67
2018-07-25T13:38:54.864Z,3.25
2018-07-25T13:41:24.765Z,3.58
2018-07-25T13:43:54.725Z,3.98
2018-07-25T13:46:24.732Z,3.67
2018-07-25T13:48:54.800Z,3.90
2018-07-25T13:51:24.541Z,3.77
2018-07-25T13:53:54.542Z,4.17
2018-07-25T13:56:24.752Z,3.70
2018-07-25T13:58:54.747Z,4.10
2018-07-25T14:01:24.798Z,3.80
2018-07-25T14:03:54.845Z,3.90
2018-07-25T14:06:24.804Z,3.70
2018-07-25T14:08:54.817Z,3.70
2018-07-25T14:11:24.911Z,3.83
2018-07-25T14:13:54.918Z,3.95
2018-07-25T14:16:24.803Z,4.00
2018-07-25T14:18:54.865Z,3.70
2018-07-25T14:21:24.890Z,3.80
2018-07-25T14:23:55.082Z,3.55
2018-07-25T14:26:24.893Z,3.67
2018-07-25T14:28:54.958Z,3.67
2018-07-25T14:31:24.945Z,4.00
2018-07-25T14:33:54.891Z,3.90
2018-07-25T14:36:25.068Z,3.83
2018-07-25T14:38:54.941Z,3.80
2018-07-25T14:41:24.617Z,3.90
2018-07-25T14:43:54.775Z,3.70
2018-07-25T14:46:24.870Z,3.77
2018-07-25T14:48:55.039Z,3.45
2018-07-25T14:51:25.003Z,3.67
2018-07-25T14:53:54.998Z,3.77
2018-07-25T14:56:24.929Z,3.63
2018-07-25T14:58:55.011Z,3.67
2018-07-25T15:01:25.087Z,3.57
2018-07-25T15:03:55.065Z,3.60
2018-07-25T15:06:31.686Z,3.62
2018-07-25T15:09:00.980Z,3.50
2018-07-25T15:11:30.338Z,3.12
2018-07-25T15:13:59.693Z,3.50
2018-07-25T15:16:29.047Z,3.70
2018-07-25T15:18:58.394Z,3.40
2018-07-25T15:21:27.751Z,3.07
2018-07-25T15:23:59.886Z,3.10
2018-07-25T15:26:29.227Z,3.30
2018-07-25T15:28:59.846Z,3.10
2018-07-25T15:31:29.193Z,3.15
2018-07-25T15:33:58.522Z,2.97
2018-07-25T15:36:40.135Z,3.00
2018-07-25T15:39:17.083Z,3.33
2018-07-25T15:41:47.510Z,3.30
2018-07-25T15:44:17.630Z,3.10
2018-07-25T15:46:47.043Z,3.57
2018-07-25T15:49:16.426Z,3.30
2018-07-25T15:51:45.861Z,3.00
2018-07-25T15:54:15.193Z,3.00
2018-07-25T15:56:44.567Z,3.30
2018-07-25T15:59:13.967Z,3.00
2018-07-25T16:01:43.422Z,2.83
2018-07-25T16:04:12.784Z,2.72
2018-07-25T16:06:42.177Z,3.10
2018-07-25T16:09:12.586Z,3.17
2018-07-25T16:11:42.365Z,2.77
2018-07-25T16:14:11.747Z,2.70
2018-07-25T16:16:41.115Z,2.75
2018-07-25T16:19:10.456Z,2.87
2018-07-25T16:21:39.867Z,2.57
2018-07-25T16:24:09.304Z,2.90
2018-07-25T16:26:38.539Z,2.63
2018-07-25T16:29:07.922Z,2.83
2018-07-25T16:31:37.247Z,3.05
2018-07-25T16:34:06.697Z,2.63
2018-07-25T16:36:36.060Z,2.70
2018-07-25T16:39:10.351Z,2.80
2018-07-25T16:41:39.766Z,2.40
2018-07-25T16:44:09.093Z,2.90
2018-07-25T16:46:38.499Z,2.62
2018-07-25T16:49:08.041Z,2.80
2018-07-25T16:51:38.584Z,2.70
2018-07-25T16:54:07.926Z,2.90
2018-07-25T16:56:37.272Z,2.90
2018-07-25T16:59:06.791Z,2.45
2018-07-25T17:01:36.127Z,2.85
2018-07-25T17:04:05.464Z,2.97
2018-07-25T17:06:34.834Z,3.10
2018-07-25T17:09:04.759Z,2.87
2018-07-25T17:11:34.195Z,2.93
2018-07-25T17:14:03.546Z,2.60
2018-07-25T17:16:32.938Z,2.80
2018-07-25T17:19:02.325Z,2.90
2018-07-25T17:21:31.698Z,2.90
2018-07-25T17:24:01.137Z,2.87
2018-07-25T17:26:30.537Z,3.10
2018-07-25T17:28:59.925Z,2.62
2018-07-25T17:31:29.286Z,2.90
2018-07-25T17:33:58.682Z,2.80
2018-07-25T17:36:28.102Z,2.87
2018-07-25T17:38:57.508Z,3.07
2018-07-25T17:41:26.930Z,2.80
2018-07-25T17:43:56.214Z,3.00
2018-07-25T17:46:25.667Z,2.63
2018-07-25T17:48:55.409Z,3.00
2018-07-25T17:51:25.485Z,2.80
2018-07-25T17:53:55.397Z,3.00
2018-07-25T17:56:26.064Z,2.87
2018-07-25T17:58:55.546Z,2.80
2018-07-25T18:01:25.456Z,2.55
2018-07-25T18:03:55.552Z,2.90
2018-07-25T18:06:25.521Z,2.90
2018-07-25T18:08:55.698Z,2.95
2018-07-25T18:11:25.501Z,3.27
2018-07-25T18:14:00.748Z,2.90
2018-07-25T18:16:30.154Z,3.00
2018-07-25T18:18:59.535Z,3.10
2018-07-25T18:21:28.915Z,3.03
2018-07-25T18:23:58.382Z,3.03
2018-07-25T18:26:27.886Z,3.17
2018-07-25T18:28:57.268Z,3.37
2018-07-25T18:31:26.629Z,3.00
2018-07-25T18:33:56.002Z,3.40
2018-07-25T18:36:25.623Z,3.10
2018-07-25T18:38:55.582Z,3.37
2018-07-25T18:41:25.682Z,3.33
2018-07-25T18:43:55.636Z,2.90
2018-07-25T18:46:25.752Z,2.95
2018-07-25T18:48:55.551Z,3.00
2018-07-25T18:51:25.566Z,3.07
2018-07-25T18:53:55.666Z,3.27
2018-07-25T18:56:25.629Z,3.20
2018-07-25T18:58:55.603Z,3.65
2018-07-25T19:01:25.626Z,3.60
2018-07-25T19:03:55.658Z,3.37
2018-07-25T19:06:25.943Z,3.60
2018-07-25T19:08:55.696Z,3.83
2018-07-25T19:11:25.640Z,3.40
2018-07-25T19:14:00.825Z,3.27
2018-07-25T19:16:30.231Z,3.10
2018-07-25T19:18:59.648Z,3.33
2018-07-25T19:21:28.699Z,3.70
2018-07-25T19:23:58.121Z,3.80
2018-07-25T19:26:27.506Z,3.50
2018-07-25T19:28:56.799Z,3.50
2018-07-25T19:31:26.201Z,3.23
2018-07-25T19:33:55.852Z,3.52
2018-07-25T19:36:25.929Z,3.45
2018-07-25T19:38:55.797Z,3.50
2018-07-25T19:41:25.767Z,3.60
2018-07-25T19:43:56.057Z,3.85
2018-07-25T19:46:25.680Z,3.70
2018-07-25T19:48:55.715Z,3.70
2018-07-25T19:51:25.720Z,3.70
2018-07-25T19:53:55.700Z,4.20
2018-07-25T19:56:25.681Z,3.85
2018-07-25T19:58:55.706Z,3.80
2018-07-25T20:01:25.752Z,3.80
2018-07-25T20:03:55.747Z,3.95
2018-07-25T20:06:25.695Z,3.70
2018-07-25T20:08:57.413Z,3.70
2018-07-25T20:11:26.774Z,3.40
2018-07-25T20:14:01.351Z,3.83
2018-07-25T20:16:30.732Z,3.60
2018-07-25T20:19:00.095Z,3.50
2018-07-25T20:21:29.467Z,3.90
2018-07-25T20:23:58.833Z,3.37
2018-07-25T20:26:28.187Z,3.93
2018-07-25T20:28:57.540Z,3.40
2018-07-25T20:31:26.993Z,3.70
2018-07-25T20:33:56.260Z,3.90
2018-07-25T20:36:25.816Z,3.50
2018-07-25T20:38:55.904Z,3.95
2018-07-25T20:41:26.036Z,4.07
2018-07-25T20:43:55.880Z,3.20
2018-07-25T20:46:25.918Z,4.08
2018-07-25T20:48:55.964Z,4.05
2018-07-25T20:51:25.928Z,3.90
2018-07-25T20:53:56.132Z,4.10
2018-07-25T20:56:25.906Z,3.80
2018-07-25T20:58:56.213Z,3.83
2018-07-25T21:01:25.927Z,3.90
2018-07-25T21:03:55.904Z,3.83
2018-07-25T21:06:25.828Z,4.00
2018-07-25T21:08:55.956Z,3.92
2018-07-25T21:11:25.801Z,3.90
2018-07-25T21:13:55.727Z,3.70
2018-07-25T21:16:25.979Z,3.62
2018-07-25T21:18:55.858Z,3.75
2018-07-25T21:21:26.276Z,3.90
2018-07-25T21:23:55.928Z,3.90
2018-07-25T21:26:25.937Z,3.80
2018-07-25T21:28:55.646Z,3.65
2018-07-25T21:31:25.800Z,4.20
2018-07-25T21:33:56.031Z,3.67
2018-07-25T21:36:26.020Z,4.12
2018-07-25T21:38:56.057Z,4.10
2018-07-25T21:41:26.062Z,4.08
2018-07-25T21:43:56.141Z,4.22
2018-07-25T21:46:26.073Z,3.95
2018-07-25T21:51:53.894Z,4.37
2018-07-25T21:54:23.199Z,4.60
2018-07-25T21:56:52.601Z,4.53
2018-07-25T21:59:22.232Z,4.22
2018-07-25T22:01:51.605Z,4.40
2018-07-25T22:04:20.956Z,4.37
2018-07-25T22:06:50.326Z,4.80
2018-07-25T22:09:19.804Z,4.50
2018-07-25T22:11:49.542Z,4.10
2018-07-25T22:14:19.277Z,4.43
2018-07-25T22:16:49.833Z,4.40
2018-07-25T22:19:20.989Z,4.33
2018-07-25T22:21:51.030Z,4.20
2018-07-25T22:24:21.123Z,4.27
2018-07-25T22:26:51.389Z,4.60
2018-07-25T22:29:21.066Z,4.50
2018-07-25T22:31:50.559Z,5.17
2018-07-25T22:34:20.161Z,4.47
2018-07-25T22:36:50.926Z,4.60
2018-07-25T22:39:20.499Z,5.00
2018-07-25T22:41:52.271Z,4.40
2018-07-25T22:44:22.176Z,5.10
2018-07-25T22:46:51.668Z,5.23
2018-07-25T22:49:21.202Z,5.00
2018-07-25T22:51:50.528Z,4.77
2018-07-25T22:54:19.935Z,5.27
2018-07-25T22:56:49.432Z,4.87
2018-07-25T22:59:18.733Z,5.60
2018-07-25T23:01:48.124Z,5.40
2018-07-25T23:04:17.506Z,5.30
2018-07-25T23:06:46.904Z,4.60
2018-07-25T23:09:16.261Z,5.40
2018-07-25T23:11:45.618Z,5.50
2018-07-25T23:14:14.942Z,5.90
2018-07-25T23:16:44.307Z,5.30
2018-07-25T23:19:13.680Z,5.07
2018-07-25T23:21:43.092Z,5.07
2018-07-25T23:24:12.426Z,5.12
2018-07-25T23:26:41.713Z,5.13
2018-07-25T23:29:11.075Z,5.23
2018-07-25T23:31:40.466Z,5.57
2018-07-25T23:34:09.753Z,5.60
2018-07-25T23:36:39.113Z,5.47
2018-07-25T23:39:10.344Z,5.28
2018-07-25T23:41:39.654Z,5.42
2018-07-25T23:44:09.429Z,6.00
2018-07-25T23:46:39.274Z,5.50
2018-07-25T23:49:08.645Z,5.50
2018-07-25T23:51:37.987Z,5.63
2018-07-25T23:54:07.347Z,5.63
2018-07-25T23:56:36.764Z,7.53
2018-07-25T23:59:06.166Z,6.13
